Time;durP1;ratioP1;P1;durP2;ratioP2;P2;SDS_P1;SDS_P2;PMS_P1;PMS_P2;Temp;Humidity;BMP_temperature;BMP_pressure;BME280_temperature;BME280_humidity;BME280_pressure;Samples;Min_cycle;Max_cycle;Signal;HPM_P1;HPM_P2
2023/09/19 00:01:13;;;;;;;3.47;1.88;;;19.90;99.90;;;;;;6239257;23;20024;-72
2023/09/19 00:04:02;;;;;;;5.72;2.15;;;19.90;99.90;;;;;;6240377;23;20008;-73
2023/09/19 00:06:48;;;;;;;2.85;1.75;;;19.90;99.90;;;;;;6240236;23;20013;-71
2023/09/19 00:09:37;;;;;;;2.75;1.90;;;19.90;99.90;;;;;;6241620;23;20442;-73
2023/09/19 00:12:23;;;;;;;3.50;1.60;;;19.90;99.90;;;;;;6242561;23;20493;-73
2023/09/19 00:15:10;;;;;;;3.67;1.70;;;19.80;99.90;;;;;;6242578;23;20016;-73
2023/09/19 00:17:56;;;;;;;4.18;1.73;;;19.80;99.90;;;;;;6239706;23;20014;-72
2023/09/19 00:20:42;;;;;;;3.25;1.60;;;19.80;99.90;;;;;;6244298;23;20024;-72
2023/09/19 00:23:29;;;;;;;3.85;1.92;;;19.80;99.90;;;;;;6241344;23;20430;-73
2023/09/19 00:26:15;;;;;;;3.08;1.63;;;19.80;99.90;;;;;;6241620;23;20026;-73
2023/09/19 00:29:08;;;;;;;2.80;1.80;;;19.80;99.90;;;;;;6243097;23;20011;-74
2023/09/19 00:31:54;;;;;;;7.47;2.50;;;19.70;99.90;;;;;;6240930;23;20472;-73
2023/09/19 00:34:40;;;;;;;4.22;1.92;;;19.70;99.90;;;;;;6243844;23;20430;-71
2023/09/19 00:37:25;;;;;;;4.20;1.80;;;19.70;99.90;;;;;;6242180;23;20174;-71
2023/09/19 00:40:12;;;;;;;3.53;1.90;;;19.70;99.90;;;;;;6243145;23;20120;-71
2023/09/19 00:43:01;;;;;;;2.42;1.60;;;19.70;99.90;;;;;;6242091;23;20015;-71
2023/09/19 00:45:49;;;;;;;3.00;1.70;;;19.70;99.90;;;;;;6242581;23;20023;-71
2023/09/19 00:48:43;;;;;;;3.35;1.63;;;19.60;99.90;;;;;;6243560;23;20012;-71
2023/09/19 00:51:30;;;;;;;4.30;1.70;;;19.60;99.90;;;;;;6242640;23;20086;-72
2023/09/19 00:54:18;;;;;;;2.80;1.50;;;19.60;99.90;;;;;;6243043;23;20338;-77
2023/09/19 00:57:04;;;;;;;6.38;2.08;;;19.50;99.90;;;;;;6243141;22;20047;-75
2023/09/19 00:59:53;;;;;;;4.10;1.98;;;19.50;99.90;;;;;;6244587;23;20338;-74
2023/09/19 01:02:39;;;;;;;3.10;1.77;;;19.50;99.90;;;;;;6241840;23;20497;-75
2023/09/19 01:05:25;;;;;;;3.97;1.60;;;19.50;99.90;;;;;;6242429;23;20103;-74
2023/09/19 01:08:11;;;;;;;3.72;1.73;;;19.50;99.90;;;;;;6243367;23;20446;-74
2023/09/19 01:11:10;;;;;;;4.22;1.73;;;19.50;99.90;;;;;;6243683;23;20039;-74
2023/09/19 01:17:48;;;;;;;4.38;2.45;;;19.40;99.90;;;;;;6242340;23;20012;-74
2023/09/19 01:20:40;;;;;;;3.45;1.90;;;19.40;99.90;;;;;;6240350;23;20350;-73
2023/09/19 01:23:50;;;;;;;2.75;1.60;;;19.40;99.90;;;;;;6241275;23;20012;-72
2023/09/19 01:27:09;;;;;;;4.28;1.70;;;19.40;99.90;;;;;;6243721;23;20012;-74
2023/09/19 01:30:11;;;;;;;5.20;1.60;;;19.40;99.90;;;;;;6241899;23;20008;-74
2023/09/19 01:32:59;;;;;;;4.20;1.42;;;19.40;99.90;;;;;;6241383;23;20008;-73
2023/09/19 01:35:45;;;;;;;3.92;2.25;;;19.40;99.90;;;;;;6242291;23;20418;-73
2023/09/19 01:38:32;;;;;;;3.10;1.85;;;19.50;99.90;;;;;;6243892;23;20095;-73
2023/09/19 01:41:27;;;;;;;3.10;1.70;;;19.50;99.90;;;;;;6241906;23;20043;-73
2023/09/19 01:44:41;;;;;;;4.03;1.85;;;19.50;99.90;;;;;;6221181;23;20008;-73
2023/09/19 01:47:35;;;;;;;3.45;1.73;;;19.50;99.90;;;;;;6243628;22;20016;-73
2023/09/19 01:50:43;;;;;;;2.60;1.60;;;19.50;99.90;;;;;;6242146;23;20044;-72
2023/09/19 01:53:48;;;;;;;4.30;1.60;;;19.50;99.90;;;;;;6243157;23;20020;-72
2023/09/19 01:56:44;;;;;;;3.22;1.50;;;19.50;99.90;;;;;;6241747;22;20019;-72
2023/09/19 01:59:48;;;;;;;2.50;1.42;;;19.50;99.90;;;;;;6242393;23;20012;-72
2023/09/19 02:02:39;;;;;;;3.10;1.83;;;19.50;99.90;;;;;;6242238;23;20043;-72
2023/09/19 02:05:27;;;;;;;3.90;1.70;;;19.50;99.90;;;;;;6241591;23;20531;-72
2023/09/19 02:08:16;;;;;;;6.97;2.35;;;19.60;99.90;;;;;;6218559;23;20016;-71
2023/09/19 02:11:03;;;;;;;3.00;1.95;;;19.60;99.90;;;;;;6240932;23;20015;-72
2023/09/19 02:13:54;;;;;;;3.30;1.70;;;19.50;99.90;;;;;;6220602;23;20077;-72
2023/09/19 02:16:40;;;;;;;6.75;2.03;;;19.50;99.90;;;;;;6242314;22;20031;-72
2023/09/19 02:19:26;;;;;;;4.88;1.80;;;19.50;99.90;;;;;;6240336;23;20043;-72
2023/09/19 02:22:12;;;;;;;4.38;1.85;;;19.50;99.90;;;;;;6241627;23;20100;-72
2023/09/19 02:25:00;;;;;;;3.28;1.50;;;19.50;99.90;;;;;;6243954;22;20004;-72
2023/09/19 02:27:46;;;;;;;4.22;1.60;;;19.50;99.90;;;;;;6239904;23;20303;-73
2023/09/19 02:30:33;;;;;;;2.45;1.60;;;19.50;99.90;;;;;;6242563;23;20011;-72
2023/09/19 02:33:19;;;;;;;2.30;1.40;;;19.50;99.90;;;;;;6241233;23;20008;-73
2023/09/19 02:36:05;;;;;;;6.07;2.35;;;19.40;99.90;;;;;;6241490;23;20008;-74
2023/09/19 02:38:51;;;;;;;3.75;1.75;;;19.40;99.90;;;;;;6240625;23;20016;-72
2023/09/19 02:41:37;;;;;;;4.05;2.30;;;19.40;99.90;;;;;;6241817;23;20016;-75
2023/09/19 02:44:23;;;;;;;2.80;1.92;;;19.40;99.90;;;;;;6241645;23;20426;-73
2023/09/19 02:47:09;;;;;;;2.90;1.50;;;19.40;99.90;;;;;;6241040;23;20293;-72
2023/09/19 02:49:55;;;;;;;5.03;2.13;;;19.40;99.90;;;;;;6239524;23;20201;-73
2023/09/19 02:52:48;;;;;;;4.05;1.42;;;19.40;99.90;;;;;;6239055;22;20286;-73
2023/09/19 02:55:34;;;;;;;5.18;1.83;;;19.40;99.90;;;;;;6240347;22;20011;-63
2023/09/19 02:58:20;;;;;;;3.17;1.80;;;19.40;99.90;;;;;;6239350;23;20012;-63
2023/09/19 03:01:12;;;;;;;3.80;1.80;;;19.30;99.90;;;;;;6239463;23;20051;-60
2023/09/19 03:03:58;;;;;;;3.72;1.52;;;19.30;99.90;;;;;;6240761;23;20016;-61
2023/09/19 03:06:44;;;;;;;4.22;1.42;;;19.30;99.90;;;;;;6240904;23;20035;-62
2023/09/19 03:09:31;;;;;;;6.78;2.20;;;19.30;99.90;;;;;;6240842;23;20015;-62
2023/09/19 03:12:16;;;;;;;4.25;1.83;;;19.30;99.90;;;;;;6239465;23;20087;-62
2023/09/19 03:15:04;;;;;;;4.47;1.95;;;19.30;99.90;;;;;;6239510;23;20008;-62
2023/09/19 03:17:53;;;;;;;3.22;1.58;;;19.30;99.90;;;;;;6238982;23;20095;-62
2023/09/19 03:20:39;;;;;;;3.83;1.83;;;19.30;99.90;;;;;;6238538;23;20016;-62
2023/09/19 03:23:25;;;;;;;1.63;1.20;;;19.30;99.90;;;;;;6219209;23;20008;-62
2023/09/19 03:26:13;;;;;;;2.15;1.50;;;19.30;99.90;;;;;;6239107;23;20066;-62
2023/09/19 03:28:59;;;;;;;2.80;1.60;;;19.40;99.90;;;;;;6241085;23;20015;-63
2023/09/19 03:31:45;;;;;;;4.07;1.60;;;19.40;99.90;;;;;;6238872;23;20011;-61
2023/09/19 03:34:31;;;;;;;3.22;1.55;;;19.40;99.90;;;;;;6239350;23;20008;-61
2023/09/19 03:37:18;;;;;;;2.47;1.60;;;19.30;99.90;;;;;;6239770;23;20350;-75
2023/09/19 03:40:05;;;;;;;3.00;1.83;;;19.30;99.90;;;;;;6240008;23;20134;-76
2023/09/19 03:42:51;;;;;;;2.72;1.40;;;19.30;99.90;;;;;;6239785;23;20766;-72
2023/09/19 03:45:38;;;;;;;3.42;1.80;;;19.30;99.90;;;;;;6242101;23;20008;-73
2023/09/19 03:48:24;;;;;;;4.00;1.50;;;19.30;99.90;;;;;;6239730;23;20012;-74
2023/09/19 03:51:10;;;;;;;3.95;1.50;;;19.30;99.90;;;;;;6241268;23;20082;-72
2023/09/19 03:53:56;;;;;;;3.15;1.50;;;19.30;99.90;;;;;;6217986;23;20008;-72
2023/09/19 03:56:43;;;;;;;3.28;1.67;;;19.30;99.90;;;;;;6239537;22;20020;-73
2023/09/19 03:59:29;;;;;;;3.78;1.50;;;19.30;99.90;;;;;;6240233;23;20070;-72
2023/09/19 04:02:22;;;;;;;2.05;1.42;;;19.30;99.90;;;;;;6240138;23;20457;-76
2023/09/19 04:05:08;;;;;;;3.35;1.50;;;19.30;99.90;;;;;;6240177;23;20342;-75
2023/09/19 04:07:54;;;;;;;2.25;1.42;;;19.30;99.90;;;;;;6241818;23;20008;-76
2023/09/19 04:10:44;;;;;;;2.45;1.20;;;19.20;99.90;;;;;;6241770;23;20015;-74
2023/09/19 04:13:30;;;;;;;2.85;1.60;;;19.20;99.90;;;;;;6239795;23;20027;-75
2023/09/19 04:16:16;;;;;;;2.05;1.15;;;19.20;99.90;;;;;;6240274;23;20035;-76
2023/09/19 04:19:03;;;;;;;2.75;1.40;;;19.20;99.90;;;;;;6242351;23;20008;-73
2023/09/19 04:21:49;;;;;;;3.75;1.30;;;19.20;99.90;;;;;;6240725;23;20078;-61
2023/09/19 04:24:35;;;;;;;2.38;1.20;;;19.10;99.90;;;;;;6241060;22;20008;-61
2023/09/19 04:27:21;;;;;;;2.50;1.48;;;19.10;99.90;;;;;;6241585;22;20008;-61
2023/09/19 04:30:11;;;;;;;4.05;1.52;;;19.10;99.90;;;;;;6241700;22;20004;-60
2023/09/19 04:32:57;;;;;;;2.45;1.55;;;19.10;99.90;;;;;;6240653;23;20008;-61
2023/09/19 04:35:43;;;;;;;3.15;1.40;;;19.10;99.90;;;;;;6244546;23;20008;-74
2023/09/19 04:38:30;;;;;;;3.40;1.48;;;19.00;99.90;;;;;;6243457;23;20012;-74
2023/09/19 04:41:16;;;;;;;2.20;1.30;;;19.00;99.90;;;;;;6240568;23;20024;-73
2023/09/19 04:44:01;;;;;;;3.15;1.70;;;19.00;99.90;;;;;;6242005;23;20016;-73
2023/09/19 04:46:47;;;;;;;4.38;1.42;;;19.00;99.90;;;;;;6242340;23;20004;-73
2023/09/19 04:49:34;;;;;;;2.20;1.33;;;19.00;99.90;;;;;;6242348;22;20162;-73
2023/09/19 04:52:20;;;;;;;1.88;1.30;;;19.00;99.90;;;;;;6238960;22;20031;-74
2023/09/19 04:55:07;;;;;;;3.08;1.48;;;19.00;99.90;;;;;;6241323;22;20427;-73
2023/09/19 04:57:53;;;;;;;3.97;1.60;;;19.00;99.90;;;;;;6242848;23;20027;-73
2023/09/19 05:00:39;;;;;;;2.78;1.17;;;19.00;99.90;;;;;;6222312;23;20090;-75
2023/09/19 05:03:25;;;;;;;3.60;1.48;;;19.00;99.90;;;;;;6244670;23;20012;-76
2023/09/19 05:06:11;;;;;;;2.03;1.15;;;18.90;99.90;;;;;;6244114;23;20038;-80
2023/09/19 05:08:57;;;;;;;2.95;1.30;;;19.00;99.90;;;;;;6243953;23;20015;-73
2023/09/19 05:11:43;;;;;;;3.97;1.92;;;19.00;99.90;;;;;;6244492;23;20011;-70
2023/09/19 05:14:29;;;;;;;1.95;1.63;;;18.90;99.90;;;;;;6242033;23;20023;-71
2023/09/19 05:17:16;;;;;;;2.70;1.30;;;18.90;99.90;;;;;;6241641;23;20019;-74
2023/09/19 05:20:16;;;;;;;3.70;2.28;;;18.90;99.90;;;;;;6221114;23;20027;-76
2023/09/19 05:23:05;;;;;;;2.80;1.73;;;18.90;99.90;;;;;;6263703;23;20023;-76
2023/09/19 05:25:51;;;;;;;3.13;1.38;;;18.90;99.90;;;;;;6266701;23;20083;-78
2023/09/19 05:28:37;;;;;;;3.50;2.05;;;18.80;99.90;;;;;;6270310;22;20008;-79
2023/09/19 05:31:25;;;;;;;4.03;1.35;;;18.80;99.90;;;;;;6258432;22;20247;-64
2023/09/19 05:34:11;;;;;;;3.65;1.45;;;18.80;99.90;;;;;;6241255;23;20016;-66
2023/09/19 05:36:57;;;;;;;7.60;2.20;;;18.80;99.90;;;;;;6241264;23;20012;-65
2023/09/19 05:39:43;;;;;;;4.65;1.77;;;18.80;99.90;;;;;;6241438;22;20016;-66
2023/09/19 05:55:24;;;;;;;3.03;1.55;;;18.80;99.90;;;;;;6239141;22;20027;-64
2023/09/19 05:58:13;;;;;;;2.85;1.58;;;18.80;99.80;;;;;;6239324;23;20023;-65
2023/09/19 06:00:59;;;;;;;2.10;1.70;;;18.80;99.80;;;;;;6240423;23;20060;-65
2023/09/19 06:03:45;;;;;;;3.13;1.60;;;18.80;99.70;;;;;;6240317;23;20008;-65
2023/09/19 06:06:33;;;;;;;5.03;1.45;;;18.80;99.70;;;;;;6240366;23;20016;-64
2023/09/19 06:09:23;;;;;;;3.80;2.13;;;18.80;99.70;;;;;;6238596;23;20079;-65
2023/09/19 06:12:08;;;;;;;2.08;1.60;;;18.80;99.60;;;;;;6240625;23;20086;-64
2023/09/19 06:14:54;;;;;;;3.22;1.35;;;18.90;99.60;;;;;;6243162;23;20012;-67
2023/09/19 06:17:48;;;;;;;2.42;1.50;;;18.80;99.60;;;;;;6242004;22;20434;-65
2023/09/19 06:20:35;;;;;;;3.20;1.55;;;18.90;99.60;;;;;;6240855;23;20030;-64
2023/09/19 06:23:21;;;;;;;3.05;1.52;;;18.90;99.50;;;;;;6241018;23;20144;-65
2023/09/19 06:26:08;;;;;;;4.22;1.50;;;18.90;99.50;;;;;;6239749;23;20467;-65
2023/09/19 06:28:55;;;;;;;2.47;1.80;;;18.90;99.50;;;;;;6242120;23;20012;-65
2023/09/19 06:31:41;;;;;;;6.05;1.70;;;18.90;99.50;;;;;;6217295;23;20107;-64
2023/09/19 06:34:27;;;;;;;5.43;1.73;;;18.90;99.50;;;;;;6239930;23;20011;-62
2023/09/19 06:37:13;;;;;;;2.70;1.60;;;19.00;99.40;;;;;;6241782;23;20095;-69
2023/09/19 06:39:59;;;;;;;4.28;1.75;;;19.00;99.40;;;;;;6219497;23;20119;-67
2023/09/19 06:42:51;;;;;;;4.47;1.80;;;19.00;99.30;;;;;;6239870;23;20004;-67
2023/09/19 06:45:37;;;;;;;2.42;1.55;;;19.10;99.30;;;;;;6240080;23;20023;-67
2023/09/19 06:48:25;;;;;;;4.40;1.50;;;19.10;99.30;;;;;;6241461;23;20446;-67
2023/09/19 06:51:10;;;;;;;2.90;1.77;;;19.10;99.20;;;;;;6238680;23;20012;-65
2023/09/19 06:53:58;;;;;;;4.97;2.20;;;19.20;99.20;;;;;;6240354;22;20004;-68
2023/09/19 06:56:44;;;;;;;3.15;1.80;;;19.30;99.10;;;;;;6239448;22;20043;-65
2023/09/19 06:59:32;;;;;;;2.70;1.60;;;19.30;99.00;;;;;;6241015;23;20074;-67
2023/09/19 07:02:19;;;;;;;3.90;1.65;;;19.40;98.90;;;;;;6240309;23;20161;-66
2023/09/19 07:05:05;;;;;;;5.28;1.80;;;19.50;98.90;;;;;;6238013;23;20083;-66
2023/09/19 07:07:51;;;;;;;2.80;1.70;;;19.50;98.80;;;;;;6215944;23;20018;-68
2023/09/19 07:10:39;;;;;;;3.00;1.50;;;19.60;98.80;;;;;;6239997;23;20420;-67
2023/09/19 07:13:25;;;;;;;3.45;1.90;;;19.70;98.70;;;;;;6240402;23;20000;-72
2023/09/19 07:16:13;;;;;;;4.45;2.10;;;19.80;98.70;;;;;;6242244;23;20055;-71
2023/09/19 07:18:59;;;;;;;4.32;1.73;;;20.00;98.50;;;;;;6239295;23;20019;-72
2023/09/19 07:21:47;;;;;;;4.18;1.40;;;20.10;98.20;;;;;;6214639;23;20019;-73
2023/09/19 07:24:33;;;;;;;3.70;1.70;;;20.20;97.90;;;;;;6236922;23;20334;-72
2023/09/19 07:27:19;;;;;;;5.32;1.85;;;20.30;97.60;;;;;;6242281;23;20012;-72
2023/09/19 07:30:05;;;;;;;2.95;1.75;;;20.40;97.50;;;;;;6243143;23;20074;-74
2023/09/19 07:32:52;;;;;;;4.22;1.77;;;20.50;97.00;;;;;;6239967;23;20477;-75
2023/09/19 07:35:41;;;;;;;2.95;2.08;;;20.60;96.80;;;;;;6241227;23;20406;-74
2023/09/19 07:38:28;;;;;;;3.70;1.70;;;20.60;96.40;;;;;;6240579;23;20015;-75
2023/09/19 07:41:14;;;;;;;5.32;1.92;;;20.70;96.10;;;;;;6241476;23;20315;-73
2023/09/19 07:44:00;;;;;;;3.22;1.73;;;20.70;96.00;;;;;;6241553;23;20008;-74
2023/09/19 07:46:46;;;;;;;3.95;1.92;;;20.70;95.80;;;;;;6239340;23;20012;-73
2023/09/19 07:49:32;;;;;;;3.22;1.80;;;20.80;95.70;;;;;;6238330;23;20035;-72
2023/09/19 07:52:19;;;;;;;2.67;1.70;;;20.80;95.60;;;;;;6242128;23;20022;-73
2023/09/19 07:55:09;;;;;;;4.35;1.92;;;20.80;95.20;;;;;;6218495;22;20019;-73
2023/09/19 07:57:56;;;;;;;4.65;2.08;;;20.80;94.90;;;;;;6241036;23;20342;-73
2023/09/19 08:00:42;;;;;;;4.22;2.00;;;20.70;94.50;;;;;;6240513;23;20082;-73
2023/09/19 08:03:28;;;;;;;3.92;2.17;;;20.70;94.50;;;;;;6242061;23;20442;-74
2023/09/19 08:06:14;;;;;;;5.05;2.10;;;20.70;94.40;;;;;;6242187;23;20350;-75
2023/09/19 08:09:00;;;;;;;4.63;1.58;;;20.70;94.30;;;;;;6239738;23;20055;-73
2023/09/19 08:11:50;;;;;;;7.93;3.47;;;20.70;94.10;;;;;;6217791;23;20018;-73
2023/09/19 08:14:37;;;;;;;7.25;2.53;;;20.70;94.10;;;;;;6240498;23;20008;-74
2023/09/19 08:17:23;;;;;;;5.70;2.22;;;20.80;94.30;;;;;;6240930;23;20430;-74
2023/09/19 08:20:17;;;;;;;3.72;2.28;;;20.90;94.30;;;;;;6241669;23;20082;-74
2023/09/19 08:23:03;;;;;;;3.85;2.05;;;20.90;93.90;;;;;;6243059;22;20012;-73
2023/09/19 08:25:49;;;;;;;6.68;2.22;;;20.90;93.80;;;;;;6240580;23;20044;-74
2023/09/19 08:28:35;;;;;;;3.95;1.83;;;21.00;93.60;;;;;;6243120;23;20092;-76
2023/09/19 08:31:22;;;;;;;5.43;2.97;;;21.00;93.50;;;;;;6243182;23;20388;-73
2023/09/19 08:34:08;;;;;;;4.80;1.83;;;21.00;93.40;;;;;;6242833;23;20004;-73
2023/09/19 08:36:58;;;;;;;4.78;2.00;;;20.90;93.20;;;;;;6243770;23;20008;-75
2023/09/19 08:39:44;;;;;;;5.43;2.35;;;20.90;93.10;;;;;;6222792;23;20012;-74
2023/09/19 08:42:31;;;;;;;8.25;2.28;;;20.90;93.00;;;;;;6240872;23;20035;-71
2023/09/19 08:45:17;;;;;;;5.50;2.15;;;20.80;92.90;;;;;;6241696;23;20012;-75
2023/09/19 08:48:11;;;;;;;4.25;2.42;;;20.80;92.80;;;;;;6241920;23;20086;-73
2023/09/19 08:51:06;;;;;;;3.28;1.60;;;20.70;92.80;;;;;;6242221;23;20501;-74
2023/09/19 08:53:52;;;;;;;;;;;20.70;92.80;;;;;;6242360;22;20017;-74
2023/09/19 08:56:40;;;;;;;6.22;2.22;;;20.70;93.20;;;;;;6243342;22;20300;-73
2023/09/19 08:59:26;;;;;;;4.70;2.58;;;20.70;92.90;;;;;;6241151;23;20004;-75
2023/09/19 09:02:15;;;;;;;3.50;2.20;;;20.70;92.70;;;;;;6244195;23;20502;-72
2023/09/19 09:05:05;;;;;;;11.18;3.08;;;20.70;92.70;;;;;;6219508;23;20031;-76
2023/09/19 09:07:51;;;;;;;4.00;2.00;;;20.80;92.60;;;;;;6243076;23;20008;-75
2023/09/19 09:10:38;;;;;;;7.63;2.45;;;20.70;92.60;;;;;;6241798;23;20340;-76
2023/09/19 09:13:26;;;;;;;5.45;2.30;;;20.80;92.40;;;;;;6241757;23;20018;-74
2023/09/19 09:16:14;;;;;;;4.43;1.90;;;20.80;92.20;;;;;;6242028;23;20093;-75
2023/09/19 09:18:59;;;;;;;4.05;2.15;;;20.90;92.10;;;;;;6243062;23;20016;-76
2023/09/19 09:21:45;;;;;;;4.28;2.00;;;20.90;92.10;;;;;;6242375;23;20318;-75
2023/09/19 09:24:36;;;;;;;7.10;2.65;;;20.90;92.00;;;;;;6243484;23;20109;-64
2023/09/19 09:27:23;;;;;;;5.85;1.70;;;20.90;92.00;;;;;;6217918;23;20158;-65
2023/09/19 09:30:29;;;;;;;3.35;1.92;;;20.90;92.00;;;;;;6241679;23;20004;-67
2023/09/19 09:33:16;;;;;;;5.45;2.03;;;21.00;91.70;;;;;;6241981;23;20016;-66
2023/09/19 09:36:04;;;;;;;3.70;2.30;;;21.20;91.60;;;;;;6219846;23;20397;-66
2023/09/19 09:38:55;;;;;;;6.25;2.00;;;21.20;91.20;;;;;;6242360;23;20012;-65
2023/09/19 09:41:41;;;;;;;4.63;2.40;;;21.20;91.00;;;;;;6239060;23;20186;-65
2023/09/19 09:44:31;;;;;;;7.80;2.75;;;21.30;90.80;;;;;;6241078;23;20383;-66
2023/09/19 09:47:54;;;;;;;8.20;2.17;;;21.30;90.70;;;;;;6238243;23;20016;-65
2023/09/19 09:50:56;;;;;;;4.40;2.10;;;21.40;90.80;;;;;;6240577;23;20065;-66
2023/09/19 09:53:45;;;;;;;9.02;2.40;;;21.50;90.80;;;;;;6240838;23;20024;-66
2023/09/19 09:56:34;;;;;;;4.68;2.10;;;21.50;90.30;;;;;;6241210;22;20066;-66
2023/09/19 09:59:24;;;;;;;4.40;2.35;;;21.50;89.80;;;;;;6240347;23;20047;-66
2023/09/19 10:02:13;;;;;;;4.75;2.30;;;21.60;89.70;;;;;;6238134;23;20016;-65
2023/09/19 10:05:13;;;;;;;4.13;2.63;;;21.60;89.70;;;;;;6240978;23;20396;-65
2023/09/19 10:08:12;;;;;;;11.57;2.20;;;21.60;89.40;;;;;;6242033;23;20499;-66
2023/09/19 10:11:05;;;;;;;5.15;2.53;;;21.60;88.70;;;;;;6218046;23;20016;-66
2023/09/19 10:13:53;;;;;;;4.13;2.25;;;21.60;87.90;;;;;;6239097;23;20020;-66
2023/09/19 10:16:49;;;;;;;7.20;2.83;;;21.70;87.50;;;;;;6240327;23;20017;-66
2023/09/19 10:19:48;;;;;;;5.15;2.20;;;21.70;86.80;;;;;;6217798;23;20016;-66
2023/09/19 10:22:35;;;;;;;7.10;2.72;;;21.80;86.50;;;;;;6239344;23;20016;-67
2023/09/19 10:25:22;;;;;;;5.15;2.70;;;21.80;86.30;;;;;;6239904;23;20183;-66
2023/09/19 10:28:10;;;;;;;3.83;2.30;;;21.80;86.30;;;;;;6237890;23;20016;-66
2023/09/19 10:30:57;;;;;;;3.78;1.80;;;21.80;85.80;;;;;;6239060;23;20012;-67
2023/09/19 10:33:44;;;;;;;4.95;2.10;;;21.90;85.70;;;;;;6240619;23;20389;-66
2023/09/19 10:36:35;;;;;;;6.18;2.85;;;21.90;85.80;;;;;;6239290;23;20008;-66
2023/09/19 10:39:21;;;;;;;3.25;2.03;;;22.00;85.20;;;;;;6239610;23;20004;-66
2023/09/19 10:42:12;;;;;;;2.90;1.77;;;22.00;85.10;;;;;;6241247;23;20450;-66
2023/09/19 10:45:00;;;;;;;3.63;2.08;;;22.10;84.50;;;;;;6241155;23;20008;-66
2023/09/19 10:47:47;;;;;;;6.63;2.30;;;22.10;83.90;;;;;;6241134;23;20012;-66
2023/09/19 10:51:09;;;;;;;4.35;2.30;;;22.10;84.20;;;;;;6239263;23;20008;-66
2023/09/19 10:54:06;;;;;;;4.97;2.45;;;22.00;83.90;;;;;;6228292;23;20008;-66
2023/09/19 10:56:54;;;;;;;5.90;2.20;;;22.00;83.10;;;;;;6240473;22;20075;-66
2023/09/19 11:00:02;;;;;;;5.82;2.38;;;21.90;83.10;;;;;;6239951;23;20012;-66
2023/09/19 11:03:25;;;;;;;5.90;2.50;;;21.90;82.30;;;;;;6241510;23;20008;-65
2023/09/19 11:06:16;;;;;;;5.13;2.25;;;21.90;81.50;;;;;;6240186;23;20369;-65
2023/09/19 11:11:57;;;;;;;5.45;2.25;;;21.90;81.10;;;;;;6241479;23;20458;-65
2023/09/19 11:14:44;;;;;;;6.18;1.98;;;21.90;80.60;;;;;;6217362;23;20008;-65
2023/09/19 11:17:50;;;;;;;5.32;2.15;;;21.90;80.30;;;;;;6238555;23;20012;-65
2023/09/19 11:20:41;;;;;;;4.72;1.77;;;22.00;80.50;;;;;;6239644;23;20449;-65
2023/09/19 11:23:27;;;;;;;4.90;1.90;;;22.00;80.10;;;;;;6239338;23;20011;-66
2023/09/19 11:26:49;;;;;;;6.53;3.03;;;22.00;78.90;;;;;;6217208;23;20012;-67
2023/09/19 11:29:36;;;;;;;6.93;2.90;;;22.00;78.90;;;;;;6239804;23;20012;-65
2023/09/19 11:33:01;;;;;;;9.57;2.83;;;22.00;78.50;;;;;;6217740;23;20163;-64
2023/09/19 11:36:11;;;;;;;9.67;2.20;;;22.00;78.50;;;;;;6240174;23;20027;-65
2023/09/19 11:38:57;;;;;;;4.40;1.88;;;22.00;78.10;;;;;;6240166;23;20022;-65
2023/09/19 11:41:46;;;;;;;3.00;1.80;;;22.00;77.90;;;;;;6241464;23;20357;-64
2023/09/19 11:44:34;;;;;;;6.15;2.10;;;22.10;77.70;;;;;;6240090;23;20043;-66
2023/09/19 11:47:22;;;;;;;2.72;1.48;;;22.10;77.40;;;;;;6240973;23;20095;-63
2023/09/19 11:50:11;;;;;;;4.00;1.80;;;22.10;77.50;;;;;;6238550;23;20012;-64
2023/09/19 11:52:57;;;;;;;4.47;2.03;;;22.20;78.00;;;;;;6240143;23;20307;-65
2023/09/19 11:55:45;;;;;;;7.13;2.20;;;22.30;77.90;;;;;;6240355;22;20031;-65
2023/09/19 11:58:33;;;;;;;3.88;1.98;;;22.30;77.70;;;;;;6216477;23;20065;-65
2023/09/19 12:01:24;;;;;;;3.92;2.00;;;22.40;77.20;;;;;;6242601;23;20039;-65
2023/09/19 12:04:11;;;;;;;4.65;2.35;;;22.40;76.60;;;;;;6242421;23;20430;-65
2023/09/19 12:06:58;;;;;;;3.00;1.73;;;22.50;76.20;;;;;;6243425;23;20087;-66
2023/09/19 12:09:47;;;;;;;2.78;1.67;;;22.50;75.40;;;;;;6242770;23;20058;-65
2023/09/19 12:12:33;;;;;;;4.13;1.95;;;22.60;75.50;;;;;;6243704;23;20434;-66
2023/09/19 12:15:33;;;;;;;6.90;1.80;;;22.60;75.50;;;;;;6244525;23;20018;-66
2023/09/19 12:18:29;;;;;;;5.32;1.98;;;22.60;75.40;;;;;;6243640;23;20016;-66
2023/09/19 12:21:45;;;;;;;3.35;1.52;;;22.70;75.80;;;;;;6243643;23;20024;-66
2023/09/19 12:24:32;;;;;;;11.30;2.25;;;22.80;75.80;;;;;;6124076;23;20098;-67
2023/09/19 12:27:18;;;;;;;3.15;1.65;;;22.90;75.20;;;;;;6122715;23;20014;-66
2023/09/19 12:30:05;;;;;;;9.88;2.33;;;22.90;75.00;;;;;;6119920;23;20493;-65
2023/09/19 12:32:52;;;;;;;4.82;2.10;;;23.00;75.20;;;;;;6121389;23;20517;-66
2023/09/19 12:35:39;;;;;;;7.25;1.95;;;23.00;74.90;;;;;;6121102;23;20017;-65
2023/09/19 12:38:28;;;;;;;2.35;1.45;;;23.10;74.30;;;;;;6121488;23;20408;-66
2023/09/19 12:41:14;;;;;;;3.88;1.77;;;23.20;73.60;;;;;;6120756;23;20872;-66
2023/09/19 12:44:02;;;;;;;4.57;1.85;;;23.20;73.40;;;;;;6122713;23;20380;-65
2023/09/19 12:46:48;;;;;;;11.65;2.88;;;23.30;73.40;;;;;;6121073;23;20014;-65
2023/09/19 12:49:34;;;;;;;8.20;2.10;;;23.40;73.50;;;;;;6121505;23;20361;-65
2023/09/19 12:52:20;;;;;;;4.88;2.22;;;23.40;73.10;;;;;;6121592;23;20448;-65
2023/09/19 12:55:10;;;;;;;2.95;1.63;;;23.50;73.40;;;;;;6120395;23;20321;-66
2023/09/19 12:58:09;;;;;;;4.00;1.75;;;23.50;73.10;;;;;;6120686;23;20029;-67
2023/09/19 13:00:55;;;;;;;3.17;1.83;;;23.60;72.30;;;;;;6198580;23;20086;-66
2023/09/19 13:03:41;;;;;;;3.22;1.55;;;23.60;71.80;;;;;;6243411;23;20469;-66
2023/09/19 13:06:43;;;;;;;4.07;1.73;;;23.60;72.40;;;;;;6244380;23;20039;-66
2023/09/19 13:09:34;;;;;;;3.72;1.67;;;23.70;71.80;;;;;;6242756;23;20012;-67
2023/09/19 13:12:36;;;;;;;3.28;1.73;;;23.60;71.50;;;;;;6243495;23;20016;-65
2023/09/19 13:15:25;;;;;;;3.03;1.58;;;23.60;71.50;;;;;;6242442;23;20004;-66
2023/09/19 13:18:13;;;;;;;4.43;2.17;;;23.60;71.60;;;;;;6239788;23;20016;-65
2023/09/19 13:21:10;;;;;;;2.70;1.40;;;23.60;71.70;;;;;;6240092;23;20016;-65
2023/09/19 13:24:16;;;;;;;3.67;1.70;;;23.60;71.40;;;;;;6240353;23;20012;-66
2023/09/19 13:27:03;;;;;;;3.28;1.60;;;23.60;70.70;;;;;;6242723;23;20012;-66
2023/09/19 13:29:49;;;;;;;3.67;1.80;;;23.60;70.80;;;;;;6241006;23;20019;-65
2023/09/19 13:32:35;;;;;;;3.97;1.63;;;23.60;70.40;;;;;;6242795;23;20074;-66
2023/09/19 13:35:21;;;;;;;5.40;1.88;;;23.60;70.30;;;;;;6242986;22;20501;-67
2023/09/19 13:38:11;;;;;;;5.03;1.45;;;23.50;70.70;;;;;;6240842;23;20438;-64
2023/09/19 13:41:00;;;;;;;4.95;1.35;;;23.60;70.10;;;;;;6241617;23;20031;-65
2023/09/19 13:43:48;;;;;;;4.15;1.95;;;23.50;70.10;;;;;;6240502;23;20337;-65
2023/09/19 13:46:35;;;;;;;3.97;1.50;;;23.50;70.10;;;;;;6240641;23;20360;-63
2023/09/19 13:49:21;;;;;;;2.00;1.10;;;23.50;70.40;;;;;;6240624;23;20355;-65
2023/09/19 13:52:07;;;;;;;4.50;1.50;;;23.50;70.30;;;;;;6243159;23;20299;-65
2023/09/19 13:54:56;;;;;;;4.05;1.20;;;23.40;70.00;;;;;;6242084;22;20024;-66
2023/09/19 13:57:43;;;;;;;2.75;1.55;;;23.40;70.20;;;;;;6242297;23;20012;-65
2023/09/19 14:00:29;;;;;;;2.75;1.20;;;23.40;70.10;;;;;;6238821;23;20012;-65
2023/09/19 14:03:15;;;;;;;7.65;2.00;;;23.40;69.60;;;;;;6239812;23;20505;-65
2023/09/19 14:06:01;;;;;;;7.68;1.52;;;23.40;69.90;;;;;;6241511;23;20012;-65
2023/09/19 14:08:47;;;;;;;2.08;1.30;;;23.40;69.50;;;;;;6240133;23;20005;-65
2023/09/19 14:11:33;;;;;;;7.32;2.28;;;23.40;69.40;;;;;;6241473;23;20047;-66
2023/09/19 14:14:22;;;;;;;6.55;2.00;;;23.40;69.60;;;;;;6241036;23;20008;-64
2023/09/19 14:17:09;;;;;;;3.47;1.80;;;23.40;69.40;;;;;;6240366;23;20007;-65
2023/09/19 14:19:55;;;;;;;3.15;1.52;;;23.50;69.60;;;;;;6236903;23;20008;-65
2023/09/19 14:22:41;;;;;;;4.15;1.60;;;23.50;69.70;;;;;;6218776;23;20019;-65
2023/09/19 14:25:28;;;;;;;8.98;1.70;;;23.50;70.00;;;;;;6240036;23;20005;-65
2023/09/19 14:28:14;;;;;;;4.35;1.63;;;23.50;69.80;;;;;;6240482;23;20019;-65
2023/09/19 14:31:10;;;;;;;3.08;1.38;;;23.60;69.80;;;;;;6242116;23;20062;-65
2023/09/19 14:33:59;;;;;;;3.75;1.85;;;23.60;69.40;;;;;;6239848;23;20048;-65
2023/09/19 14:36:44;;;;;;;5.03;2.00;;;23.60;69.50;;;;;;6240070;23;20004;-65
2023/09/19 14:39:30;;;;;;;4.15;1.83;;;23.60;69.40;;;;;;6240441;23;20008;-64
2023/09/19 14:42:17;;;;;;;3.15;1.80;;;23.50;69.40;;;;;;6241469;23;20389;-66
2023/09/19 14:45:05;;;;;;;2.25;1.50;;;23.50;68.90;;;;;;6240717;23;20000;-64
2023/09/19 14:47:54;;;;;;;5.20;1.48;;;23.50;69.20;;;;;;6217092;23;20440;-65
2023/09/19 14:50:40;;;;;;;3.58;1.92;;;23.50;69.40;;;;;;6240811;23;20035;-65
2023/09/19 14:53:27;;;;;;;4.85;2.58;;;23.50;69.40;;;;;;6220051;23;20095;-62
2023/09/19 14:56:18;;;;;;;3.92;1.90;;;23.40;69.20;;;;;;6240143;22;20024;-63
2023/09/19 14:59:04;;;;;;;5.80;1.92;;;23.40;69.50;;;;;;6240339;23;20446;-66
2023/09/19 15:01:50;;;;;;;4.50;1.83;;;23.40;69.30;;;;;;6221189;23;20366;-65